Time;durP1;ratioP1;P1;durP2;ratioP2;P2;SDS_P1;SDS_P2;PMS_P1;PMS_P2;Temp;Humidity;BMP_temperature;BMP_pressure;BME280_temperature;BME280_humidity;BME280_pressure;Samples;Min_cycle;Max_cycle;Signal;HPM_P1;HPM_P2
2021/12/07 00:01:18;;;;;;;37.27;11.17;;;;;;;-1.04;100.00;96724.13;5066188;28;20065;-63
2021/12/07 00:03:46;;;;;;;39.13;13.47;;;;;;;-1.01;100.00;96718.00;5066344;28;20049;-62
2021/12/07 00:06:14;;;;;;;45.57;16.00;;;;;;;-1.11;100.00;96724.38;5069010;28;20390;-62
2021/12/07 00:08:41;;;;;;;36.77;13.37;;;;;;;-1.10;100.00;96723.47;5068583;28;20078;-62
2021/12/07 00:11:10;;;;;;;44.17;15.83;;;;;;;-1.07;100.00;96725.94;5068789;28;20101;-63
2021/12/07 00:13:39;;;;;;;44.80;15.03;;;;;;;-1.07;100.00;96724.22;5068841;28;20045;-62
2021/12/07 00:16:09;;;;;;;45.33;15.90;;;;;;;-1.08;100.00;96732.88;5068973;28;20110;-63
2021/12/07 00:18:39;;;;;;;41.10;13.67;;;;;;;-1.11;100.00;96716.66;5068763;28;20389;-63
2021/12/07 00:21:08;;;;;;;39.13;14.03;;;;;;;-1.12;100.00;96722.72;5067752;28;20057;-62
2021/12/07 00:23:36;;;;;;;38.33;14.63;;;;;;;-1.10;100.00;96729.47;5069036;28;20048;-63
2021/12/07 00:26:03;;;;;;;36.77;13.53;;;;;;;-1.15;100.00;96726.25;5069253;28;20033;-62
2021/12/07 00:28:31;;;;;;;31.03;12.83;;;;;;;-1.17;100.00;96715.13;5069530;28;20056;-63
2021/12/07 00:31:09;;;;;;;33.57;12.97;;;;;;;-1.18;100.00;96718.63;5068797;28;20051;-62
2021/12/07 00:33:45;;;;;;;39.60;12.80;;;;;;;-1.11;100.00;96730.38;5068741;28;20127;-62
2021/12/07 00:36:12;;;;;;;37.87;13.27;;;;;;;-1.14;100.00;96742.53;5067739;28;20047;-61
2021/12/07 00:38:40;;;;;;;37.53;13.40;;;;;;;-1.22;100.00;96740.25;5068923;28;20072;-61
2021/12/07 00:41:07;;;;;;;46.20;14.27;;;;;;;-1.21;100.00;96739.34;5068703;28;20059;-62
2021/12/07 00:43:35;;;;;;;53.97;15.47;;;;;;;-1.23;100.00;96741.16;5069108;28;20040;-61
2021/12/07 00:46:04;;;;;;;63.93;15.73;;;;;;;-1.21;100.00;96741.91;5067752;28;20048;-62
2021/12/07 00:48:31;;;;;;;60.37;14.83;;;;;;;-1.23;100.00;96742.88;5069597;28;20080;-62
2021/12/07 00:51:00;;;;;;;70.20;17.77;;;;;;;-1.28;100.00;96748.19;5068844;28;20044;-63
2021/12/07 00:53:28;;;;;;;62.57;12.37;;;;;;;-1.26;100.00;96746.41;5067690;28;20041;-61
2021/12/07 00:55:59;;;;;;;70.77;14.87;;;;;;;-1.26;100.00;96742.97;5068187;28;20036;-61
2021/12/07 00:58:28;;;;;;;50.47;14.87;;;;;;;-1.27;100.00;96749.03;5051413;28;20080;-62
2021/12/07 01:00:59;;;;;;;48.87;13.40;;;;;;;-1.33;100.00;96733.78;5068457;28;20378;-62
2021/12/07 01:03:28;;;;;;;51.50;13.60;;;;;;;-1.31;100.00;96739.72;5070120;28;20054;-62
2021/12/07 01:06:06;;;;;;;47.97;13.70;;;;;;;-1.34;100.00;96748.41;5071313;28;20044;-62
2021/12/07 01:08:54;;;;;;;47.23;12.03;;;;;;;-1.35;100.00;96749.28;5072614;28;20044;-62
2021/12/07 01:25:29;;;;;;;34.17;11.43;;;;;;;-1.36;100.00;96751.91;5029536;28;20060;-63
2021/12/07 01:28:02;;;;;;;;;;;;;;;-1.35;100.00;96758.78;5064400;28;20055;-63
2021/12/07 01:30:39;;;;;;;26.00;9.32;;;;;;;-1.32;100.00;96753.50;5070848;28;20058;-62
2021/12/07 01:33:23;;;;;;;32.27;11.53;;;;;;;-1.38;100.00;96749.38;5070794;28;20485;-62
2021/12/07 01:36:06;;;;;;;28.17;10.80;;;;;;;-1.44;100.00;96749.63;5070983;28;20109;-62
2021/12/07 01:39:33;;;;;;;37.40;12.90;;;;;;;-1.35;100.00;96744.13;5070442;28;20434;-63
2021/12/07 01:44:40;;;;;;;36.10;13.00;;;;;;;-1.38;100.00;96736.50;5045987;28;20052;-62
2021/12/07 02:00:58;;;;;;;37.17;13.27;;;;;;;-1.33;100.00;96731.19;5070473;28;20040;-61
2021/12/07 02:03:26;;;;;;;43.43;14.03;;;;;;;-1.32;100.00;96740.59;5071829;28;20044;-62
2021/12/07 02:05:54;;;;;;;38.90;15.40;;;;;;;-1.35;100.00;96741.56;5070639;28;20441;-62
2021/12/07 02:08:22;;;;;;;49.87;12.60;;;;;;;-1.38;100.00;96751.16;5072016;28;20488;-60
2021/12/07 02:10:52;;;;;;;45.27;13.63;;;;;;;-1.39;100.00;96750.28;5070615;28;20036;-62
2021/12/07 02:14:04;;;;;;;46.97;15.87;;;;;;;-1.41;100.00;96753.81;5069739;28;20127;-61
2021/12/07 02:16:12;;;;;;;52.80;14.93;;;;;;;-1.34;100.00;96751.00;5069778;28;20583;-61
2021/12/07 02:18:41;;;;;;;36.63;11.73;;;;;;;-1.34;100.00;96745.00;5070469;28;20050;-61
2021/12/07 02:21:21;;;;;;;43.50;14.70;;;;;;;-1.37;100.00;96740.78;5069640;28;20247;-61
2021/12/07 02:23:54;;;;;;;52.93;17.00;;;;;;;-1.33;100.00;96742.38;5069949;28;20044;-61
2021/12/07 02:26:22;;;;;;;45.97;12.90;;;;;;;-1.32;100.00;96743.19;5069552;28;20040;-61
2021/12/07 02:28:52;;;;;;;50.33;14.43;;;;;;;-1.30;100.00;96739.69;5069965;28;20048;-61
2021/12/07 02:31:20;;;;;;;60.43;16.33;;;;;;;-1.39;100.00;96732.25;5069618;28;20106;-63
2021/12/07 02:33:47;;;;;;;67.03;15.43;;;;;;;-1.35;100.00;96733.00;5070035;28;20041;-63
2021/12/07 02:36:15;;;;;;;58.97;17.20;;;;;;;-1.39;100.00;96737.41;5070368;28;20048;-62
2021/12/07 02:38:43;;;;;;;56.97;16.73;;;;;;;-1.41;100.00;96738.38;5070984;28;20389;-62
2021/12/07 02:41:12;;;;;;;54.37;16.33;;;;;;;-1.37;100.00;96747.66;5069535;28;20059;-62
2021/12/07 02:43:39;;;;;;;60.77;16.07;;;;;;;-1.41;100.00;96744.38;5069564;28;20040;-61
2021/12/07 02:46:06;;;;;;;61.00;17.20;;;;;;;-1.38;100.00;96749.38;5068919;28;20059;-61
2021/12/07 02:48:34;;;;;;;64.73;17.27;;;;;;;-1.41;100.00;96746.94;5070494;28;20051;-61
2021/12/07 02:51:03;;;;;;;71.63;17.93;;;;;;;-1.35;100.00;96741.56;5069975;28;20047;-62
2021/12/07 02:53:34;;;;;;;72.50;17.67;;;;;;;-1.33;100.00;96747.50;5069555;28;20051;-62
2021/12/07 02:56:06;;;;;;;60.20;15.93;;;;;;;-1.35;100.00;96744.13;5069235;28;20037;-62
2021/12/07 02:58:36;;;;;;;53.27;15.67;;;;;;;-1.43;100.00;96761.59;5069568;28;20056;-62
2021/12/07 03:01:11;;;;;;;58.13;15.67;;;;;;;-1.48;100.00;96767.81;5069328;28;20040;-62
2021/12/07 03:03:48;;;;;;;57.08;14.85;;;;;;;-1.46;100.00;96766.84;5053715;28;20092;-62
2021/12/07 03:06:22;;;;;;;62.07;15.97;;;;;;;-1.45;100.00;96758.25;5070220;28;20105;-62
2021/12/07 03:28:42;;;;;;;109.27;18.63;;;;;;;-1.50;100.00;96743.84;5011095;28;20041;-61
2021/12/07 03:31:12;;;;;;;95.13;17.83;;;;;;;-1.47;100.00;96739.41;5011674;28;20049;-62
2021/12/07 03:33:41;;;;;;;58.73;14.33;;;;;;;-1.49;100.00;96737.78;5038869;28;20048;-61
2021/12/07 03:36:11;;;;;;;138.90;20.97;;;;;;;-1.43;100.00;96735.00;5070008;28;20037;-61
2021/12/07 03:38:39;;;;;;;166.03;24.37;;;;;;;-1.48;100.00;96742.91;5069759;28;20068;-61
2021/12/07 03:41:08;;;;;;;90.60;18.93;;;;;;;-1.46;100.00;96740.28;5069127;28;20043;-61
2021/12/07 03:43:36;;;;;;;89.97;17.60;;;;;;;-1.49;100.00;96743.78;5068730;28;20041;-61
2021/12/07 03:46:05;;;;;;;79.27;19.27;;;;;;;-1.50;100.00;96751.59;5068483;28;20056;-62
2021/12/07 03:48:32;;;;;;;88.17;17.53;;;;;;;-1.49;100.00;96758.41;5051788;28;20048;-61
2021/12/07 03:50:59;;;;;;;76.30;17.00;;;;;;;-1.48;100.00;96760.09;5069764;28;20120;-62
2021/12/07 03:53:27;;;;;;;98.13;18.30;;;;;;;-1.47;100.00;96757.44;5068571;28;20056;-62
2021/12/07 03:55:56;;;;;;;90.47;18.03;;;;;;;-1.53;100.00;96754.25;5067245;28;20037;-60
2021/12/07 03:58:24;;;;;;;83.80;16.20;;;;;;;-1.55;100.00;96749.16;5066926;28;20036;-61
2021/12/07 04:00:51;;;;;;;109.23;20.13;;;;;;;-1.56;100.00;96743.16;5068755;28;20059;-61
2021/12/07 04:03:21;;;;;;;53.40;14.10;;;;;;;-1.56;100.00;96745.72;5068390;28;20114;-61
2021/12/07 04:05:54;;;;;;;73.93;18.60;;;;;;;-1.53;100.00;96746.53;5068644;28;20090;-61
2021/12/07 04:08:23;;;;;;;;;;;;;;;-1.55;100.00;96731.13;5069352;28;20087;-62
2021/12/07 04:10:53;;;;;;;68.23;15.30;;;;;;;-1.56;100.00;96740.56;5068960;28;19931;-62
2021/12/07 04:13:20;;;;;;;66.43;13.73;;;;;;;-1.61;100.00;96736.47;5069244;28;20041;-62
2021/12/07 04:15:48;;;;;;;46.63;14.10;;;;;;;-1.58;100.00;96756.97;5069243;28;20040;-62
2021/12/07 04:18:16;;;;;;;46.23;16.47;;;;;;;-1.64;100.00;96759.75;5071879;28;20052;-62
2021/12/07 04:20:45;;;;;;;69.17;16.33;;;;;;;-1.63;100.00;96769.19;5069302;28;20056;-62
2021/12/07 04:23:13;;;;;;;47.70;13.47;;;;;;;-1.71;100.00;96771.19;5069160;28;20513;-62
2021/12/07 04:25:40;;;;;;;51.67;12.53;;;;;;;-1.75;100.00;96769.56;5070222;28;20123;-62
2021/12/07 04:28:07;;;;;;;46.77;15.00;;;;;;;-1.71;100.00;96766.03;5070350;28;20098;-62
2021/12/07 04:30:43;;;;;;;72.83;17.27;;;;;;;-1.78;100.00;96759.41;5070290;28;20048;-64
2021/12/07 04:33:12;;;;;;;51.63;16.80;;;;;;;-1.72;100.00;96769.47;5069997;28;20052;-61
2021/12/07 04:35:47;;;;;;;53.07;14.73;;;;;;;-1.75;100.00;96770.41;5069693;28;20131;-61
2021/12/07 04:38:16;;;;;;;41.07;16.10;;;;;;;-1.66;100.00;96766.69;5075127;28;20382;-62
2021/12/07 04:40:44;;;;;;;47.00;13.80;;;;;;;-1.62;100.00;96766.56;5073560;28;20498;-61
2021/12/07 04:43:11;;;;;;;78.10;18.27;;;;;;;-1.56;100.00;96770.66;5073647;28;20049;-61
2021/12/07 04:45:52;;;;;;;79.40;19.00;;;;;;;-1.76;100.00;96762.75;5074745;28;20443;-61
2021/12/07 04:59:45;;;;;;;51.03;15.50;;;;;;;-1.59;100.00;96770.75;5073640;28;20048;-62
2021/12/07 05:02:14;;;;;;;50.30;16.33;;;;;;;-1.66;100.00;96784.72;5073699;28;20040;-61
2021/12/07 05:04:41;;;;;;;53.30;16.07;;;;;;;-1.57;100.00;96780.09;5073770;28;20049;-61
2021/12/07 05:07:13;;;;;;;52.70;13.50;;;;;;;-1.60;100.00;96784.53;5071070;28;20056;-61
2021/12/07 05:10:13;;;;;;;59.23;18.03;;;;;;;-1.58;100.00;96780.16;5072194;28;20127;-60
2021/12/07 05:15:30;;;;;;;44.27;15.90;;;;;;;-1.59;100.00;96791.38;5071380;28;20401;-60
2021/12/07 05:18:04;;;;;;;;;;;;;;;-1.63;100.00;96784.63;5074024;28;20037;-60
2021/12/07 05:39:40;;;;;;;70.60;18.63;;;;;;;-1.65;100.00;96789.84;5071866;28;20116;-60
2021/12/07 05:42:10;;;;;;;50.40;15.87;;;;;;;-1.61;100.00;96793.13;5072715;28;20053;-60
2021/12/07 05:44:37;;;;;;;56.63;16.13;;;;;;;-1.57;100.00;96790.41;5074120;28;20386;-61
2021/12/07 05:47:04;;;;;;;44.17;15.20;;;;;;;-1.65;100.00;96784.69;5072526;28;20550;-60
2021/12/07 05:49:31;;;;;;;45.90;15.30;;;;;;;-1.68;100.00;96787.34;5072069;28;20151;-60
2021/12/07 05:51:58;;;;;;;48.63;13.87;;;;;;;-1.68;100.00;96783.94;5073716;28;20054;-60
2021/12/07 05:54:25;;;;;;;44.37;15.60;;;;;;;-1.70;100.00;96780.56;5073171;28;20511;-60
2021/12/07 05:56:53;;;;;;;46.57;15.17;;;;;;;-1.71;100.00;96789.19;5072585;28;20047;-61
2021/12/07 05:59:22;;;;;;;60.27;15.77;;;;;;;-1.73;100.00;96794.41;5072665;28;20032;-60
2021/12/07 06:01:49;;;;;;;64.80;15.83;;;;;;;-1.72;100.00;96800.38;5072748;28;20051;-61
2021/12/07 06:04:16;;;;;;;62.50;16.90;;;;;;;-1.67;100.00;96811.38;5072107;28;20516;-59
2021/12/07 06:06:43;;;;;;;47.07;14.37;;;;;;;-1.71;100.00;96809.81;5072406;28;20039;-61
2021/12/07 06:09:10;;;;;;;51.53;13.80;;;;;;;-1.69;100.00;96808.00;5072298;28;20040;-61
2021/12/07 06:11:37;;;;;;;51.73;15.10;;;;;;;-1.76;100.00;96803.94;5072061;28;20045;-60
2021/12/07 06:14:04;;;;;;;40.03;13.47;;;;;;;-1.72;100.00;96805.53;5068272;28;20072;-61
2021/12/07 06:16:33;;;;;;;38.20;13.83;;;;;;;-1.75;100.00;96811.63;5072056;28;20538;-61
2021/12/07 06:19:00;;;;;;;52.77;13.63;;;;;;;-1.72;100.00;96806.38;5072303;28;20040;-61
2021/12/07 06:21:28;;;;;;;41.37;11.67;;;;;;;-1.77;100.00;96815.13;5072108;28;20056;-61
2021/12/07 06:23:56;;;;;;;45.80;14.70;;;;;;;-1.76;100.00;96812.53;5071263;28;20048;-60
2021/12/07 06:26:23;;;;;;;55.50;16.73;;;;;;;-1.68;100.00;96812.25;5071965;28;20049;-61
2021/12/07 06:28:50;;;;;;;61.33;15.80;;;;;;;-1.70;100.00;96802.00;5071204;28;20044;-61
2021/12/07 06:31:17;;;;;;;44.03;14.97;;;;;;;-1.80;100.00;96805.78;5072884;28;20040;-61
2021/12/07 06:33:45;;;;;;;58.90;14.43;;;;;;;-1.70;100.00;96814.88;5071943;28;20044;-61
2021/12/07 06:36:14;;;;;;;55.10;13.57;;;;;;;-1.64;100.00;96816.41;5071878;28;20491;-61
2021/12/07 06:38:41;;;;;;;61.50;14.93;;;;;;;-1.77;100.00;96815.13;5071753;28;20068;-62
2021/12/07 06:41:09;;;;;;;74.33;16.93;;;;;;;-1.79;100.00;96815.19;5071928;28;20040;-61
2021/12/07 06:43:36;;;;;;;81.53;16.80;;;;;;;-1.75;100.00;96811.63;5072327;28;20044;-61
2021/12/07 06:46:03;;;;;;;58.00;16.10;;;;;;;-1.82;100.00;96825.56;5071973;28;20048;-61
2021/12/07 06:48:30;;;;;;;78.13;16.23;;;;;;;-1.75;100.00;96813.34;5070365;28;20064;-62
2021/12/07 06:50:59;;;;;;;79.40;18.93;;;;;;;-1.80;100.00;96818.66;5071637;28;20043;-60
2021/12/07 06:53:26;;;;;;;96.53;19.47;;;;;;;-1.78;100.00;96814.28;5071886;28;20051;-60
2021/12/07 06:55:53;;;;;;;105.30;20.77;;;;;;;-1.75;100.00;96814.19;5070517;28;20062;-60
2021/12/07 06:58:20;;;;;;;110.30;18.70;;;;;;;-1.81;100.00;96806.66;5071610;28;20053;-60
2021/12/07 07:00:47;;;;;;;98.60;20.53;;;;;;;-1.74;100.00;96815.88;5070499;28;20067;-60
2021/12/07 07:03:14;;;;;;;93.87;18.70;;;;;;;-1.80;100.00;96817.81;5071367;28;20041;-60
2021/12/07 07:05:41;;;;;;;162.43;21.97;;;;;;;-1.79;100.00;96828.06;5070858;28;20036;-69
2021/12/07 07:08:10;;;;;;;47.90;14.80;;;;;;;-1.80;100.00;96810.94;5069134;28;20102;-68
2021/12/07 07:10:37;;;;;;;73.53;15.53;;;;;;;-1.73;100.00;96822.72;5069649;28;20063;-69
2021/12/07 07:13:04;;;;;;;93.70;17.37;;;;;;;-1.72;100.00;96826.13;5070941;28;20156;-69
2021/12/07 07:15:31;;;;;;;85.80;16.50;;;;;;;-1.74;100.00;96826.16;5067101;28;20055;-70
2021/12/07 07:18:00;;;;;;;66.40;14.93;;;;;;;-1.72;100.00;96836.41;5070257;28;20041;-70
2021/12/07 07:20:28;;;;;;;78.83;17.63;;;;;;;-1.80;100.00;96835.81;5070888;28;20504;-67
2021/12/07 07:22:56;;;;;;;61.60;14.57;;;;;;;-1.79;100.00;96824.63;5070172;28;20052;-69
2021/12/07 07:25:25;;;;;;;81.67;19.40;;;;;;;-1.76;100.00;96834.84;5071300;28;20598;-68
2021/12/07 07:27:52;;;;;;;69.50;15.10;;;;;;;-1.82;100.00;96829.91;5072985;28;20041;-71
2021/12/07 07:30:20;;;;;;;96.50;18.00;;;;;;;-1.84;100.00;96837.69;5073160;28;20044;-69
2021/12/07 07:32:48;;;;;;;68.07;16.50;;;;;;;-1.85;100.00;96846.28;5072281;28;20404;-69
2021/12/07 07:35:16;;;;;;;85.17;17.23;;;;;;;-1.80;100.00;96844.41;5073763;28;20044;-69
2021/12/07 07:37:44;;;;;;;65.13;13.80;;;;;;;-1.88;100.00;96843.81;5073529;28;20485;-68
2021/12/07 07:40:14;;;;;;;67.17;16.80;;;;;;;-1.86;100.00;96848.88;5073044;28;20147;-70
2021/12/07 07:42:43;;;;;;;64.10;16.07;;;;;;;-1.84;100.00;96849.69;5070734;28;20488;-70
2021/12/07 07:45:25;;;;;;;74.97;16.73;;;;;;;-1.77;100.00;96848.63;5055233;28;20079;-69
2021/12/07 07:47:52;;;;;;;63.87;19.63;;;;;;;-1.81;100.00;96849.59;5073595;28;20045;-70
2021/12/07 07:50:19;;;;;;;65.63;17.40;;;;;;;-1.86;100.00;96851.47;5072347;28;20099;-70
2021/12/07 07:52:46;;;;;;;52.70;17.97;;;;;;;-1.77;100.00;96853.75;5069657;28;20115;-62
2021/12/07 07:55:15;;;;;;;65.00;16.23;;;;;;;-1.73;100.00;96855.34;5067140;28;20051;-63
2021/12/07 07:57:44;;;;;;;57.47;21.37;;;;;;;-1.81;100.00;96847.03;5066806;28;20032;-61
2021/12/07 08:00:16;;;;;;;53.77;18.20;;;;;;;-1.72;100.00;96850.16;5067705;28;20470;-62
2021/12/07 08:02:44;;;;;;;48.10;15.40;;;;;;;-1.83;100.00;96854.78;5068397;28;20029;-63
2021/12/07 08:05:11;;;;;;;58.97;15.13;;;;;;;-1.72;100.00;96846.72;5068401;28;20078;-63
2021/12/07 08:07:39;;;;;;;49.23;14.57;;;;;;;-1.74;100.00;96848.53;5066592;28;20041;-64
2021/12/07 08:10:09;;;;;;;42.77;14.20;;;;;;;-1.75;100.00;96859.69;5067256;28;20051;-64
2021/12/07 08:12:37;;;;;;;43.67;14.83;;;;;;;-1.85;100.00;96856.56;5066511;28;20047;-64
2021/12/07 08:15:06;;;;;;;43.20;14.40;;;;;;;-1.77;100.00;96864.06;5066978;28;20439;-62
2021/12/07 08:17:34;;;;;;;45.87;13.97;;;;;;;-1.79;100.00;96858.09;5067951;28;20041;-65
2021/12/07 08:20:02;;;;;;;43.10;13.77;;;;;;;-1.75;100.00;96863.13;5066855;28;20064;-66
2021/12/07 08:22:31;;;;;;;51.43;18.47;;;;;;;-1.75;100.00;96867.41;5067129;28;20102;-68
2021/12/07 08:24:58;;;;;;;48.40;15.30;;;;;;;-1.73;100.00;96866.50;5070473;28;20050;-69
2021/12/07 08:27:27;;;;;;;51.70;16.20;;;;;;;-1.67;100.00;96866.28;5069908;28;20049;-69
2021/12/07 08:29:56;;;;;;;44.40;17.07;;;;;;;-1.67;100.00;96865.47;5068877;28;20036;-69
2021/12/07 08:32:24;;;;;;;41.07;15.20;;;;;;;-1.82;100.00;96868.53;5070825;28;20083;-71
2021/12/07 08:34:52;;;;;;;56.83;16.00;;;;;;;-1.66;100.00;96869.72;5070865;28;20052;-69
2021/12/07 08:37:19;;;;;;;51.63;16.30;;;;;;;-1.68;100.00;96859.44;5069490;28;20040;-68
2021/12/07 08:39:46;;;;;;;36.50;14.80;;;;;;;-1.53;100.00;96865.84;5052199;28;20492;-69
2021/12/07 08:42:15;;;;;;;38.80;13.37;;;;;;;-1.61;100.00;96867.81;5053182;28;20064;-69
2021/12/07 08:44:43;;;;;;;37.53;15.33;;;;;;;-1.78;100.00;96872.69;5069453;28;20036;-69
2021/12/07 08:47:10;;;;;;;40.40;14.37;;;;;;;-1.72;100.00;96877.63;5069487;28;20068;-68
2021/12/07 08:49:39;;;;;;;42.87;15.47;;;;;;;-1.69;100.00;96882.69;5067690;28;20676;-69
2021/12/07 08:52:06;;;;;;;38.50;14.83;;;;;;;-1.77;100.00;96877.78;5070274;28;20552;-70
2021/12/07 08:59:37;;;;;;;38.17;15.33;;;;;;;-1.53;100.00;96875.31;5069191;28;20068;-69
2021/12/07 09:00:11;;;;;;;39.93;15.07;;;;;;;-1.60;100.00;96869.53;5069850;28;20044;-68
2021/12/07 09:02:38;;;;;;;59.27;27.77;;;;;;;-1.55;100.00;96870.22;5070014;28;20363;-69
2021/12/07 09:05:09;;;;;;;33.30;14.53;;;;;;;-1.46;100.00;96854.44;5068799;28;20722;-69
2021/12/07 09:07:36;;;;;;;49.53;20.37;;;;;;;-1.63;100.00;96849.00;5067648;28;20051;-70
2021/12/07 09:10:05;;;;;;;48.50;18.60;;;;;;;-1.66;100.00;96869.72;5068887;28;20047;-67
2021/12/07 09:12:32;;;;;;;54.03;19.87;;;;;;;-1.64;100.00;96868.75;5067556;28;20056;-67
2021/12/07 09:14:59;;;;;;;38.80;15.47;;;;;;;-1.49;100.00;96864.00;5067336;28;20067;-67
2021/12/07 09:17:26;;;;;;;33.13;13.57;;;;;;;-1.74;100.00;96858.81;5068321;28;20075;-61
2021/12/07 09:19:54;;;;;;;35.67;13.17;;;;;;;-1.53;100.00;96858.09;5069116;28;20349;-63
2021/12/07 09:22:22;;;;;;;38.67;15.43;;;;;;;-1.52;100.00;96853.81;5069044;28;20052;-68
2021/12/07 09:24:49;;;;;;;43.60;14.23;;;;;;;-1.45;100.00;96851.00;5069931;28;20059;-64
2021/12/07 09:27:16;;;;;;;38.40;13.97;;;;;;;-1.50;100.00;96850.28;5072854;28;20105;-63
2021/12/07 09:29:44;;;;;;;32.77;12.87;;;;;;;-1.60;100.00;96847.16;5070785;28;20094;-64
2021/12/07 09:32:11;;;;;;;49.67;17.67;;;;;;;-1.50;100.00;96831.44;5072002;28;20036;-66
2021/12/07 09:34:38;;;;;;;38.67;13.60;;;;;;;-1.53;100.00;96837.50;5068078;28;20041;-67
2021/12/07 09:37:08;;;;;;;33.87;13.10;;;;;;;-1.53;100.00;96832.34;5071012;28;20102;-65
2021/12/07 09:39:36;;;;;;;30.77;12.93;;;;;;;-1.21;100.00;96832.13;5070124;28;20132;-64
2021/12/07 09:42:04;;;;;;;36.67;15.90;;;;;;;-1.26;100.00;96835.75;5071547;28;20044;-64
2021/12/07 09:44:31;;;;;;;33.30;15.07;;;;;;;-1.26;100.00;96834.00;5069846;28;20071;-64
2021/12/07 09:46:58;;;;;;;27.53;12.50;;;;;;;-1.28;100.00;96824.66;5071704;28;20366;-64
2021/12/07 09:49:25;;;;;;;45.43;19.73;;;;;;;-1.17;100.00;96825.97;5070387;28;20084;-69
2021/12/07 09:51:53;;;;;;;29.50;12.87;;;;;;;-1.22;100.00;96827.88;5072207;28;20039;-67
2021/12/07 09:54:20;;;;;;;36.47;16.30;;;;;;;-1.04;100.00;96819.50;5069592;28;20041;-69
2021/12/07 09:56:48;;;;;;;29.57;12.23;;;;;;;-1.18;100.00;96820.84;5070220;28;20444;-68
2021/12/07 09:59:15;;;;;;;58.30;27.07;;;;;;;-1.24;100.00;96816.75;5071811;28;20367;-66
2021/12/07 10:01:43;;;;;;;36.57;13.97;;;;;;;-1.43;100.00;96823.44;5069920;28;20044;-68
2021/12/07 10:04:10;;;;;;;32.50;11.57;;;;;;;-1.16;100.00;96822.47;5068157;28;20052;-68
2021/12/07 10:06:37;;;;;;;37.77;15.43;;;;;;;-1.14;100.00;96817.28;5069619;28;20119;-70
2021/12/07 10:09:06;;;;;;;47.97;20.13;;;;;;;-0.86;100.00;96820.56;5071064;28;20037;-69
2021/12/07 10:11:33;;;;;;;35.80;17.17;;;;;;;-0.95;100.00;96821.72;5072176;28;20048;-67
2021/12/07 10:14:03;;;;;;;27.20;12.10;;;;;;;-0.91;100.00;96818.16;5069091;28;21270;-65
2021/12/07 10:16:30;;;;;;;27.23;12.23;;;;;;;-1.01;100.00;96818.53;5070196;28;20401;-70
2021/12/07 10:18:58;;;;;;;30.73;12.50;;;;;;;-0.86;100.00;96825.72;5069231;28;20032;-65
2021/12/07 10:21:27;;;;;;;24.93;10.70;;;;;;;-0.88;100.00;96832.66;5069912;28;20458;-64
2021/12/07 10:23:58;;;;;;;25.17;10.47;;;;;;;-1.12;100.00;96826.66;5068376;28;20124;-64
2021/12/07 10:26:27;;;;;;;47.27;17.73;;;;;;;-0.80;100.00;96822.94;5069683;28;20086;-67
2021/12/07 10:28:58;;;;;;;32.37;12.60;;;;;;;-0.87;100.00;96816.31;5066782;28;20051;-67
2021/12/07 10:31:31;;;;;;;29.40;14.90;;;;;;;-0.83;100.00;96820.47;5067514;28;20048;-69
2021/12/07 10:34:01;;;;;;;32.88;14.63;;;;;;;-0.80;100.00;96826.34;5069109;28;20044;-67
2021/12/07 10:36:34;;;;;;;28.10;11.80;;;;;;;-0.91;100.00;96828.47;5070845;28;20040;-69
2021/12/07 10:39:11;;;;;;;29.27;13.73;;;;;;;-0.65;100.00;96832.69;5071252;28;20123;-67
2021/12/07 10:41:40;;;;;;;28.87;12.37;;;;;;;-0.76;100.00;96833.06;5075018;28;20722;-69
2021/12/07 10:44:10;;;;;;;23.93;10.63;;;;;;;-0.87;100.00;96824.88;5074729;28;20450;-67
2021/12/07 10:46:42;;;;;;;28.57;13.83;;;;;;;-1.00;100.00;96822.78;5073889;28;20064;-67
2021/12/07 10:49:32;;;;;;;31.23;13.05;;;;;;;-0.76;100.00;96835.66;5073451;28;20064;-68
2021/12/07 10:52:15;;;;;;;28.63;13.73;;;;;;;-0.63;100.00;96829.16;5074783;28;20098;-69
2021/12/07 10:54:49;;;;;;;20.93;9.47;;;;;;;-1.39;100.00;96827.59;5063926;28;20036;-68
2021/12/07 10:57:19;;;;;;;22.70;10.13;;;;;;;-1.01;100.00;96827.13;5070820;28;20107;-68
2021/12/07 10:59:54;;;;;;;21.13;11.97;;;;;;;-1.13;100.00;96829.28;5071858;28;20546;-69
2021/12/07 11:02:25;;;;;;;26.20;11.77;;;;;;;-1.06;100.00;96817.88;5074944;28;20048;-68
2021/12/07 11:04:52;;;;;;;27.67;11.30;;;;;;;-1.19;100.00;96838.06;5071519;28;20041;-69
2021/12/07 11:07:22;;;;;;;25.37;12.17;;;;;;;-1.29;100.00;96826.38;5069988;28;20045;-61
2021/12/07 11:10:03;;;;;;;20.83;9.40;;;;;;;-1.34;100.00;96836.03;5066977;28;20055;-62
2021/12/07 11:12:41;;;;;;;23.57;9.83;;;;;;;-1.32;100.00;96829.06;5067264;28;20120;-62
2021/12/07 11:15:15;;;;;;;20.03;7.93;;;;;;;-1.46;100.00;96833.00;5068629;28;20040;-60
2021/12/07 11:17:45;;;;;;;25.27;9.93;;;;;;;-1.53;100.00;96828.94;5069153;28;20094;-62
2021/12/07 11:20:14;;;;;;;23.90;10.73;;;;;;;-1.38;100.00;96824.09;5068353;28;20049;-61
2021/12/07 11:22:45;;;;;;;28.40;14.87;;;;;;;-1.41;100.00;96824.22;5067462;28;20037;-73
2021/12/07 11:25:31;;;;;;;26.67;12.23;;;;;;;-1.19;100.00;96824.34;5066733;28;20128;-63
2021/12/07 11:30:44;;;;;;;20.47;8.90;;;;;;;-1.32;100.00;96826.47;5068866;28;20052;-63
2021/12/07 11:33:24;;;;;;;24.80;10.93;;;;;;;-1.30;100.00;96829.00;5066031;28;20046;-63
2021/12/07 11:35:51;;;;;;;19.10;9.00;;;;;;;-1.35;100.00;96830.91;5067846;28;20047;-63
2021/12/07 11:38:29;;;;;;;18.97;9.37;;;;;;;-1.36;100.00;96824.06;5067805;28;20041;-63
2021/12/07 11:41:16;;;;;;;29.83;10.17;;;;;;;-1.37;100.00;96824.97;5068404;28;20051;-62
2021/12/07 11:44:03;;;;;;;23.67;9.60;;;;;;;-1.30;100.00;96829.88;5067166;28;20127;-63
2021/12/07 11:46:32;;;;;;;24.03;10.67;;;;;;;-1.25;100.00;96824.53;5067373;28;20045;-63
2021/12/07 11:49:17;;;;;;;17.43;8.87;;;;;;;-1.44;100.00;96821.75;5068128;28;20041;-63
2021/12/07 11:51:48;;;;;;;21.73;9.00;;;;;;;-1.43;100.00;96813.13;5066294;28;20048;-63
2021/12/07 11:54:17;;;;;;;18.70;8.50;;;;;;;-1.50;100.00;96814.22;5066814;28;20048;-63
2021/12/07 11:56:46;;;;;;;20.23;9.20;;;;;;;-1.63;100.00;96813.78;5067260;28;20055;-64
2021/12/07 11:59:14;;;;;;;21.50;10.50;;;;;;;-1.61;100.00;96808.59;5068115;28;20047;-61
2021/12/07 12:01:42;;;;;;;24.63;10.77;;;;;;;-1.56;100.00;96806.72;5069416;28;20049;-73
2021/12/07 12:04:09;;;;;;;21.07;12.37;;;;;;;-1.61;100.00;96809.44;5069151;28;20060;-71
2021/12/07 12:06:42;;;;;;;18.60;8.77;;;;;;;-1.64;100.00;96814.69;5069093;28;20124;-72
2021/12/07 12:09:09;;;;;;;20.40;8.43;;;;;;;-1.70;100.00;96812.28;5068772;28;20044;-72
2021/12/07 12:11:42;;;;;;;20.37;9.27;;;;;;;-1.78;100.00;96811.72;5067584;28;20036;-69
2021/12/07 12:14:22;;;;;;;17.90;8.47;;;;;;;-1.74;100.00;96809.91;5066179;28;20045;-71
2021/12/07 12:16:58;;;;;;;22.83;8.57;;;;;;;-1.80;100.00;96807.50;5065988;28;20056;-62
2021/12/07 12:19:32;;;;;;;25.33;9.63;;;;;;;-1.76;100.00;96804.78;5066796;28;20036;-64
2021/12/07 12:22:09;;;;;;;18.23;8.73;;;;;;;-1.86;100.00;96811.13;5067890;28;20060;-64
2021/12/07 12:24:44;;;;;;;22.70;11.70;;;;;;;-1.86;100.00;96808.56;5067671;28;20044;-65
2021/12/07 12:27:15;;;;;;;20.73;9.13;;;;;;;-1.90;100.00;96811.25;5068300;28;20045;-65
2021/12/07 12:29:43;;;;;;;20.80;8.13;;;;;;;-1.95;100.00;96818.31;5066303;28;20068;-64
2021/12/07 12:32:10;;;;;;;21.23;9.77;;;;;;;-2.05;100.00;96817.75;5066816;28;20045;-63
2021/12/07 12:34:47;;;;;;;24.50;9.27;;;;;;;-2.00;100.00;96815.03;5067279;28;20139;-63
2021/12/07 12:37:20;;;;;;;26.07;11.13;;;;;;;-1.93;100.00;96821.69;5066965;28;20040;-71
2021/12/07 12:39:52;;;;;;;22.92;8.63;;;;;;;-1.95;100.00;96802.84;5067593;28;20040;-71
2021/12/07 12:42:29;;;;;;;22.87;9.30;;;;;;;-2.02;100.00;96811.66;5068931;28;20117;-71
2021/12/07 12:44:59;;;;;;;16.43;8.43;;;;;;;-2.18;100.00;96813.03;5068123;28;20068;-71
2021/12/07 12:47:29;;;;;;;19.60;9.63;;;;;;;-2.20;100.00;96807.94;5053136;28;20051;-70
2021/12/07 12:49:56;;;;;;;27.33;11.07;;;;;;;-2.19;100.00;96824.19;5099769;28;20067;-71
2021/12/07 12:52:44;;;;;;;19.17;9.60;;;;;;;-2.25;100.00;96824.41;5053860;28;20166;-69
2021/12/07 12:55:31;;;;;;;21.80;9.73;;;;;;;-2.30;100.00;96839.13;5069178;28;20052;-70